sensor_id;sensor_type;location;lat;lon;timestamp;P1;durP1;ratioP1;P2;durP2;ratioP2
18100;SDS011;9177;49.156;8.142;2022-08-02T00:00:55;0.52;;;0.52;;
18100;SDS011;9177;49.156;8.142;2022-08-02T00:03:22;0.70;;;0.70;;
18100;SDS011;9177;49.156;8.142;2022-08-02T00:05:51;0.50;;;0.50;;
18100;SDS011;9177;49.156;8.142;2022-08-02T00:08:18;0.60;;;0.60;;
18100;SDS011;9177;49.156;8.142;2022-08-02T00:10:45;0.60;;;0.60;;
18100;SDS011;9177;49.156;8.142;2022-08-02T00:13:12;0.50;;;0.50;;
18100;SDS011;9177;49.156;8.142;2022-08-02T00:15:39;0.63;;;0.63;;
18100;SDS011;9177;49.156;8.142;2022-08-02T00:18:05;0.50;;;0.50;;
18100;SDS011;9177;49.156;8.142;2022-08-02T00:20:32;0.60;;;0.60;;
18100;SDS011;9177;49.156;8.142;2022-08-02T00:23:01;0.40;;;0.40;;
18100;SDS011;9177;49.156;8.142;2022-08-02T00:25:28;0.60;;;0.60;;
18100;SDS011;9177;49.156;8.142;2022-08-02T00:27:55;0.50;;;0.50;;
18100;SDS011;9177;49.156;8.142;2022-08-02T00:30:22;0.50;;;0.50;;
18100;SDS011;9177;49.156;8.142;2022-08-02T00:32:49;0.70;;;0.70;;
18100;SDS011;9177;49.156;8.142;2022-08-02T00:35:16;0.60;;;0.60;;
18100;SDS011;9177;49.156;8.142;2022-08-02T00:37:43;0.77;;;0.70;;
18100;SDS011;9177;49.156;8.142;2022-08-02T00:40:11;0.63;;;0.63;;
18100;SDS011;9177;49.156;8.142;2022-08-02T00:42:39;0.60;;;0.60;;
18100;SDS011;9177;49.156;8.142;2022-08-02T00:45:06;0.40;;;0.40;;
18100;SDS011;9177;49.156;8.142;2022-08-02T00:47:33;0.68;;;0.68;;
18100;SDS011;9177;49.156;8.142;2022-08-02T00:50:01;0.60;;;0.60;;
18100;SDS011;9177;49.156;8.142;2022-08-02T00:52:29;0.50;;;0.50;;
18100;SDS011;9177;49.156;8.142;2022-08-02T00:54:55;0.60;;;0.60;;
18100;SDS011;9177;49.156;8.142;2022-08-02T00:57:24;0.65;;;0.65;;
18100;SDS011;9177;49.156;8.142;2022-08-02T00:59:51;0.60;;;0.60;;
18100;SDS011;9177;49.156;8.142;2022-08-02T01:02:17;0.60;;;0.60;;
18100;SDS011;9177;49.156;8.142;2022-08-02T01:04:44;0.70;;;0.70;;
18100;SDS011;9177;49.156;8.142;2022-08-02T01:07:11;0.90;;;0.65;;
18100;SDS011;9177;49.156;8.142;2022-08-02T01:09:38;0.70;;;0.70;;
18100;SDS011;9177;49.156;8.142;2022-08-02T01:12:06;0.57;;;0.50;;
18100;SDS011;9177;49.156;8.142;2022-08-02T01:14:34;0.80;;;0.80;;
18100;SDS011;9177;49.156;8.142;2022-08-02T01:17:03;0.68;;;0.60;;
18100;SDS011;9177;49.156;8.142;2022-08-02T01:19:36;0.60;;;0.60;;
18100;SDS011;9177;49.156;8.142;2022-08-02T01:22:22;0.70;;;0.70;;
18100;SDS011;9177;49.156;8.142;2022-08-02T01:25:16;0.73;;;0.73;;
18100;SDS011;9177;49.156;8.142;2022-08-02T01:28:08;0.70;;;0.70;;
18100;SDS011;9177;49.156;8.142;2022-08-02T01:30:51;1.73;;;0.77;;
18100;SDS011;9177;49.156;8.142;2022-08-02T01:33:27;0.75;;;0.75;;
18100;SDS011;9177;49.156;8.142;2022-08-02T01:36:00;0.95;;;0.88;;
18100;SDS011;9177;49.156;8.142;2022-08-02T01:38:31;0.70;;;0.70;;
18100;SDS011;9177;49.156;8.142;2022-08-02T01:41:03;0.50;;;0.50;;
18100;SDS011;9177;49.156;8.142;2022-08-02T01:43:34;0.63;;;0.63;;
18100;SDS011;9177;49.156;8.142;2022-08-02T01:46:03;0.73;;;0.73;;
18100;SDS011;9177;49.156;8.142;2022-08-02T01:48:31;0.80;;;0.70;;
18100;SDS011;9177;49.156;8.142;2022-08-02T01:50:59;0.63;;;0.63;;
18100;SDS011;9177;49.156;8.142;2022-08-02T01:53:28;0.60;;;0.60;;
18100;SDS011;9177;49.156;8.142;2022-08-02T01:55:57;0.70;;;0.70;;
18100;SDS011;9177;49.156;8.142;2022-08-02T01:58:26;0.73;;;0.73;;
18100;SDS011;9177;49.156;8.142;2022-08-02T02:00:57;0.80;;;0.80;;
18100;SDS011;9177;49.156;8.142;2022-08-02T02:03:26;0.68;;;0.68;;
18100;SDS011;9177;49.156;8.142;2022-08-02T02:05:56;0.70;;;0.70;;
18100;SDS011;9177;49.156;8.142;2022-08-02T02:08:26;0.80;;;0.80;;
18100;SDS011;9177;49.156;8.142;2022-08-02T02:10:56;0.75;;;0.75;;
18100;SDS011;9177;49.156;8.142;2022-08-02T02:13:24;0.60;;;0.60;;
18100;SDS011;9177;49.156;8.142;2022-08-02T02:15:53;0.80;;;0.80;;
18100;SDS011;9177;49.156;8.142;2022-08-02T02:18:23;0.70;;;0.65;;
18100;SDS011;9177;49.156;8.142;2022-08-02T02:20:51;0.93;;;0.80;;
18100;SDS011;9177;49.156;8.142;2022-08-02T02:23:19;0.90;;;0.90;;
18100;SDS011;9177;49.156;8.142;2022-08-02T02:25:46;0.90;;;0.90;;
18100;SDS011;9177;49.156;8.142;2022-08-02T02:28:16;0.80;;;0.80;;
18100;SDS011;9177;49.156;8.142;2022-08-02T02:30:48;1.15;;;0.88;;
18100;SDS011;9177;49.156;8.142;2022-08-02T02:33:17;0.90;;;0.90;;
18100;SDS011;9177;49.156;8.142;2022-08-02T02:35:48;0.90;;;0.90;;
18100;SDS011;9177;49.156;8.142;2022-08-02T02:38:17;0.80;;;0.80;;
18100;SDS011;9177;49.156;8.142;2022-08-02T02:40:45;0.98;;;0.70;;
18100;SDS011;9177;49.156;8.142;2022-08-02T02:43:13;0.90;;;0.90;;
18100;SDS011;9177;49.156;8.142;2022-08-02T02:45:42;0.80;;;0.80;;
18100;SDS011;9177;49.156;8.142;2022-08-02T02:48:12;0.75;;;0.75;;
18100;SDS011;9177;49.156;8.142;2022-08-02T02:50:40;0.80;;;0.80;;
18100;SDS011;9177;49.156;8.142;2022-08-02T02:53:09;0.90;;;0.90;;
18100;SDS011;9177;49.156;8.142;2022-08-02T02:55:37;0.80;;;0.80;;
18100;SDS011;9177;49.156;8.142;2022-08-02T02:58:05;0.93;;;0.88;;
18100;SDS011;9177;49.156;8.142;2022-08-02T03:00:33;0.90;;;0.90;;
18100;SDS011;9177;49.156;8.142;2022-08-02T03:03:18;0.90;;;0.90;;
18100;SDS011;9177;49.156;8.142;2022-08-02T03:05:46;0.90;;;0.90;;
18100;SDS011;9177;49.156;8.142;2022-08-02T03:08:15;0.88;;;0.82;;
18100;SDS011;9177;49.156;8.142;2022-08-02T03:10:41;1.00;;;1.00;;
18100;SDS011;9177;49.156;8.142;2022-08-02T03:13:09;1.15;;;1.05;;
18100;SDS011;9177;49.156;8.142;2022-08-02T03:15:37;0.90;;;0.90;;
18100;SDS011;9177;49.156;8.142;2022-08-02T03:18:06;0.77;;;0.77;;
18100;SDS011;9177;49.156;8.142;2022-08-02T03:20:33;0.80;;;0.80;;
18100;SDS011;9177;49.156;8.142;2022-08-02T03:23:00;0.88;;;0.88;;
18100;SDS011;9177;49.156;8.142;2022-08-02T03:25:28;0.73;;;0.73;;
18100;SDS011;9177;49.156;8.142;2022-08-02T03:27:56;0.95;;;0.95;;
18100;SDS011;9177;49.156;8.142;2022-08-02T03:30:23;0.98;;;0.90;;
18100;SDS011;9177;49.156;8.142;2022-08-02T03:32:51;0.95;;;0.80;;
18100;SDS011;9177;49.156;8.142;2022-08-02T03:35:19;0.77;;;0.77;;
18100;SDS011;9177;49.156;8.142;2022-08-02T03:37:46;0.90;;;0.90;;
18100;SDS011;9177;49.156;8.142;2022-08-02T03:40:14;0.80;;;0.80;;
18100;SDS011;9177;49.156;8.142;2022-08-02T03:42:44;0.82;;;0.82;;
18100;SDS011;9177;49.156;8.142;2022-08-02T03:45:12;0.90;;;0.90;;
18100;SDS011;9177;49.156;8.142;2022-08-02T03:47:40;0.80;;;0.80;;
18100;SDS011;9177;49.156;8.142;2022-08-02T03:50:09;0.70;;;0.70;;
18100;SDS011;9177;49.156;8.142;2022-08-02T03:52:37;0.77;;;0.77;;
18100;SDS011;9177;49.156;8.142;2022-08-02T03:55:06;1.38;;;1.00;;
18100;SDS011;9177;49.156;8.142;2022-08-02T03:57:35;1.20;;;1.10;;
18100;SDS011;9177;49.156;8.142;2022-08-02T04:00:04;0.80;;;0.80;;
18100;SDS011;9177;49.156;8.142;2022-08-02T04:02:32;0.90;;;0.75;;
18100;SDS011;9177;49.156;8.142;2022-08-02T04:05:09;0.85;;;0.80;;
18100;SDS011;9177;49.156;8.142;2022-08-02T04:07:36;0.88;;;0.88;;
18100;SDS011;9177;49.156;8.142;2022-08-02T04:10:03;0.80;;;0.80;;
18100;SDS011;9177;49.156;8.142;2022-08-02T04:12:31;0.77;;;0.73;;
18100;SDS011;9177;49.156;8.142;2022-08-02T04:14:57;0.90;;;0.90;;
18100;SDS011;9177;49.156;8.142;2022-08-02T04:17:26;0.95;;;0.90;;
18100;SDS011;9177;49.156;8.142;2022-08-02T04:19:57;0.80;;;0.80;;
18100;SDS011;9177;49.156;8.142;2022-08-02T04:22:28;0.95;;;0.85;;
18100;SDS011;9177;49.156;8.142;2022-08-02T04:24:58;1.00;;;1.00;;
18100;SDS011;9177;49.156;8.142;2022-08-02T04:27:26;1.55;;;0.70;;
18100;SDS011;9177;49.156;8.142;2022-08-02T04:29:54;0.70;;;0.70;;
18100;SDS011;9177;49.156;8.142;2022-08-02T04:32:23;0.82;;;0.82;;
18100;SDS011;9177;49.156;8.142;2022-08-02T04:34:51;0.77;;;0.77;;
18100;SDS011;9177;49.156;8.142;2022-08-02T04:37:19;0.90;;;0.90;;
18100;SDS011;9177;49.156;8.142;2022-08-02T04:39:46;0.80;;;0.80;;
18100;SDS011;9177;49.156;8.142;2022-08-02T04:42:18;0.77;;;0.77;;
18100;SDS011;9177;49.156;8.142;2022-08-02T04:44:47;1.08;;;0.98;;
18100;SDS011;9177;49.156;8.142;2022-08-02T04:47:15;0.90;;;0.82;;
18100;SDS011;9177;49.156;8.142;2022-08-02T04:49:42;0.80;;;0.80;;
18100;SDS011;9177;49.156;8.142;2022-08-02T04:52:10;0.80;;;0.80;;
18100;SDS011;9177;49.156;8.142;2022-08-02T04:54:37;1.15;;;1.15;;
18100;SDS011;9177;49.156;8.142;2022-08-02T04:57:04;1.08;;;0.95;;
18100;SDS011;9177;49.156;8.142;2022-08-02T04:59:52;1.05;;;0.95;;
18100;SDS011;9177;49.156;8.142;2022-08-02T05:02:18;0.90;;;0.90;;
18100;SDS011;9177;49.156;8.142;2022-08-02T05:04:45;1.08;;;1.00;;
18100;SDS011;9177;49.156;8.142;2022-08-02T05:07:13;1.20;;;1.10;;
18100;SDS011;9177;49.156;8.142;2022-08-02T05:09:40;0.98;;;0.98;;
18100;SDS011;9177;49.156;8.142;2022-08-02T05:12:07;0.80;;;0.80;;
18100;SDS011;9177;49.156;8.142;2022-08-02T05:14:35;1.10;;;1.10;;
18100;SDS011;9177;49.156;8.142;2022-08-02T05:17:01;0.90;;;0.90;;
18100;SDS011;9177;49.156;8.142;2022-08-02T05:19:28;1.02;;;1.02;;
18100;SDS011;9177;49.156;8.142;2022-08-02T05:21:55;1.10;;;1.00;;
18100;SDS011;9177;49.156;8.142;2022-08-02T05:24:23;1.00;;;1.00;;
18100;SDS011;9177;49.156;8.142;2022-08-02T05:26:50;1.05;;;1.00;;
18100;SDS011;9177;49.156;8.142;2022-08-02T05:29:17;1.85;;;1.20;;
18100;SDS011;9177;49.156;8.142;2022-08-02T05:31:44;0.82;;;0.82;;
18100;SDS011;9177;49.156;8.142;2022-08-02T05:34:11;1.00;;;1.00;;
18100;SDS011;9177;49.156;8.142;2022-08-02T05:36:38;1.23;;;1.13;;
18100;SDS011;9177;49.156;8.142;2022-08-02T05:39:09;1.15;;;1.10;;
18100;SDS011;9177;49.156;8.142;2022-08-02T05:41:37;1.23;;;1.20;;
18100;SDS011;9177;49.156;8.142;2022-08-02T05:44:08;1.38;;;1.23;;
18100;SDS011;9177;49.156;8.142;2022-08-02T05:46:35;2.15;;;1.33;;
18100;SDS011;9177;49.156;8.142;2022-08-02T05:49:02;1.40;;;1.30;;
18100;SDS011;9177;49.156;8.142;2022-08-02T05:51:31;1.38;;;1.27;;
18100;SDS011;9177;49.156;8.142;2022-08-02T05:54:04;1.30;;;1.20;;
18100;SDS011;9177;49.156;8.142;2022-08-02T05:56:41;1.02;;;0.93;;
18100;SDS011;9177;49.156;8.142;2022-08-02T05:59:17;1.25;;;1.15;;
18100;SDS011;9177;49.156;8.142;2022-08-02T06:01:52;1.23;;;1.20;;
18100;SDS011;9177;49.156;8.142;2022-08-02T06:04:24;1.00;;;1.00;;
18100;SDS011;9177;49.156;8.142;2022-08-02T06:06:53;1.33;;;1.15;;
18100;SDS011;9177;49.156;8.142;2022-08-02T06:09:22;1.60;;;1.50;;
18100;SDS011;9177;49.156;8.142;2022-08-02T06:11:52;1.35;;;1.25;;
18100;SDS011;9177;49.156;8.142;2022-08-02T06:14:23;1.60;;;1.50;;
18100;SDS011;9177;49.156;8.142;2022-08-02T06:16:51;1.17;;;1.08;;
18100;SDS011;9177;49.156;8.142;2022-08-02T06:19:18;1.38;;;1.27;;
18100;SDS011;9177;49.156;8.142;2022-08-02T06:21:46;1.50;;;1.40;;
18100;SDS011;9177;49.156;8.142;2022-08-02T06:24:16;1.88;;;1.40;;
18100;SDS011;9177;49.156;8.142;2022-08-02T06:26:44;1.30;;;1.20;;
18100;SDS011;9177;49.156;8.142;2022-08-02T06:29:14;1.63;;;1.52;;
18100;SDS011;9177;49.156;8.142;2022-08-02T06:31:41;1.15;;;1.13;;
18100;SDS011;9177;49.156;8.142;2022-08-02T06:34:08;1.20;;;1.20;;
18100;SDS011;9177;49.156;8.142;2022-08-02T06:36:36;1.00;;;1.00;;
18100;SDS011;9177;49.156;8.142;2022-08-02T06:39:10;1.20;;;1.20;;
18100;SDS011;9177;49.156;8.142;2022-08-02T06:41:44;1.50;;;1.40;;
18100;SDS011;9177;49.156;8.142;2022-08-02T06:44:17;1.17;;;1.10;;
18100;SDS011;9177;49.156;8.142;2022-08-02T06:46:44;1.88;;;1.25;;
18100;SDS011;9177;49.156;8.142;2022-08-02T06:49:11;1.60;;;1.50;;
18100;SDS011;9177;49.156;8.142;2022-08-02T06:51:38;1.30;;;1.20;;
18100;SDS011;9177;49.156;8.142;2022-08-02T06:54:05;1.38;;;1.27;;
18100;SDS011;9177;49.156;8.142;2022-08-02T06:56:32;1.20;;;1.10;;
18100;SDS011;9177;49.156;8.142;2022-08-02T06:58:59;1.45;;;1.35;;
18100;SDS011;9177;49.156;8.142;2022-08-02T07:01:27;1.35;;;1.25;;
18100;SDS011;9177;49.156;8.142;2022-08-02T07:03:54;1.38;;;1.27;;
18100;SDS011;9177;49.156;8.142;2022-08-02T07:06:21;1.42;;;1.33;;
18100;SDS011;9177;49.156;8.142;2022-08-02T07:08:48;1.13;;;1.13;;
18100;SDS011;9177;49.156;8.142;2022-08-02T07:11:15;1.20;;;1.10;;
18100;SDS011;9177;49.156;8.142;2022-08-02T07:13:43;1.30;;;1.20;;
18100;SDS011;9177;49.156;8.142;2022-08-02T07:16:10;1.00;;;1.00;;
18100;SDS011;9177;49.156;8.142;2022-08-02T07:18:38;0.90;;;0.90;;
18100;SDS011;9177;49.156;8.142;2022-08-02T07:21:05;1.00;;;1.00;;
18100;SDS011;9177;49.156;8.142;2022-08-02T07:23:32;1.17;;;1.13;;
18100;SDS011;9177;49.156;8.142;2022-08-02T07:25:59;1.70;;;1.20;;
18100;SDS011;9177;49.156;8.142;2022-08-02T07:28:26;1.77;;;1.45;;
18100;SDS011;9177;49.156;8.142;2022-08-02T07:30:56;1.55;;;1.45;;
18100;SDS011;9177;49.156;8.142;2022-08-02T07:33:22;1.25;;;1.20;;
18100;SDS011;9177;49.156;8.142;2022-08-02T07:35:53;1.40;;;1.30;;
18100;SDS011;9177;49.156;8.142;2022-08-02T07:38:21;1.17;;;1.17;;
18100;SDS011;9177;49.156;8.142;2022-08-02T07:40:49;1.30;;;1.27;;
18100;SDS011;9177;49.156;8.142;2022-08-02T07:43:16;1.40;;;1.30;;
18100;SDS011;9177;49.156;8.142;2022-08-02T07:45:42;1.23;;;1.20;;
18100;SDS011;9177;49.156;8.142;2022-08-02T07:48:09;1.70;;;1.60;;
18100;SDS011;9177;49.156;8.142;2022-08-02T07:50:36;1.50;;;1.40;;
18100;SDS011;9177;49.156;8.142;2022-08-02T07:53:04;1.50;;;1.40;;
18100;SDS011;9177;49.156;8.142;2022-08-02T07:55:31;1.50;;;1.40;;
18100;SDS011;9177;49.156;8.142;2022-08-02T07:57:58;1.50;;;1.40;;
18100;SDS011;9177;49.156;8.142;2022-08-02T08:00:25;1.30;;;1.20;;
18100;SDS011;9177;49.156;8.142;2022-08-02T08:02:52;1.40;;;1.30;;
18100;SDS011;9177;49.156;8.142;2022-08-02T08:05:19;2.35;;;1.60;;
18100;SDS011;9177;49.156;8.142;2022-08-02T08:07:45;1.80;;;1.50;;
18100;SDS011;9177;49.156;8.142;2022-08-02T08:10:14;1.50;;;1.40;;
18100;SDS011;9177;49.156;8.142;2022-08-02T08:12:41;1.60;;;1.50;;
18100;SDS011;9177;49.156;8.142;2022-08-02T08:15:08;1.75;;;1.65;;
18100;SDS011;9177;49.156;8.142;2022-08-02T08:17:36;1.60;;;1.50;;
18100;SDS011;9177;49.156;8.142;2022-08-02T08:20:03;1.40;;;1.30;;
18100;SDS011;9177;49.156;8.142;2022-08-02T08:22:31;1.30;;;1.20;;
18100;SDS011;9177;49.156;8.142;2022-08-02T08:24:58;2.58;;;1.50;;
18100;SDS011;9177;49.156;8.142;2022-08-02T08:27:27;1.45;;;1.35;;
18100;SDS011;9177;49.156;8.142;2022-08-02T08:29:54;1.38;;;1.27;;
18100;SDS011;9177;49.156;8.142;2022-08-02T08:32:21;1.60;;;1.50;;
18100;SDS011;9177;49.156;8.142;2022-08-02T08:34:48;1.35;;;1.25;;
18100;SDS011;9177;49.156;8.142;2022-08-02T08:37:15;1.50;;;1.40;;
18100;SDS011;9177;49.156;8.142;2022-08-02T08:39:42;1.60;;;1.50;;
18100;SDS011;9177;49.156;8.142;2022-08-02T08:42:10;1.20;;;1.10;;
18100;SDS011;9177;49.156;8.142;2022-08-02T08:44:38;1.25;;;1.15;;
18100;SDS011;9177;49.156;8.142;2022-08-02T08:47:05;1.35;;;1.25;;
18100;SDS011;9177;49.156;8.142;2022-08-02T08:49:35;1.30;;;1.20;;
18100;SDS011;9177;49.156;8.142;2022-08-02T08:52:05;1.30;;;1.20;;
18100;SDS011;9177;49.156;8.142;2022-08-02T08:54:34;1.45;;;1.35;;
18100;SDS011;9177;49.156;8.142;2022-08-02T08:57:03;1.30;;;1.20;;
18100;SDS011;9177;49.156;8.142;2022-08-02T08:59:31;1.40;;;1.30;;
18100;SDS011;9177;49.156;8.142;2022-08-02T09:01:59;1.50;;;1.40;;
18100;SDS011;9177;49.156;8.142;2022-08-02T09:04:28;1.42;;;1.17;;
18100;SDS011;9177;49.156;8.142;2022-08-02T09:06:55;2.13;;;1.30;;
18100;SDS011;9177;49.156;8.142;2022-08-02T09:09:24;1.27;;;1.20;;
18100;SDS011;9177;49.156;8.142;2022-08-02T09:11:51;1.15;;;1.15;;
18100;SDS011;9177;49.156;8.142;2022-08-02T09:14:24;1.30;;;1.20;;
18100;SDS011;9177;49.156;8.142;2022-08-02T09:16:53;1.17;;;1.08;;
18100;SDS011;9177;49.156;8.142;2022-08-02T09:19:34;1.02;;;1.02;;
18100;SDS011;9177;49.156;8.142;2022-08-02T09:22:02;1.55;;;1.45;;
18100;SDS011;9177;49.156;8.142;2022-08-02T09:24:39;1.20;;;1.20;;
18100;SDS011;9177;49.156;8.142;2022-08-02T09:27:09;1.95;;;1.38;;
18100;SDS011;9177;49.156;8.142;2022-08-02T09:29:38;1.27;;;1.17;;
18100;SDS011;9177;49.156;8.142;2022-08-02T09:32:06;1.60;;;1.20;;
18100;SDS011;9177;49.156;8.142;2022-08-02T09:34:43;1.40;;;1.30;;
18100;SDS011;9177;49.156;8.142;2022-08-02T09:37:21;1.40;;;1.30;;
18100;SDS011;9177;49.156;8.142;2022-08-02T09:39:51;2.38;;;1.15;;
18100;SDS011;9177;49.156;8.142;2022-08-02T09:42:19;2.05;;;1.50;;
18100;SDS011;9177;49.156;8.142;2022-08-02T09:44:52;2.03;;;1.25;;
18100;SDS011;9177;49.156;8.142;2022-08-02T09:47:23;1.67;;;1.35;;
18100;SDS011;9177;49.156;8.142;2022-08-02T09:49:51;1.50;;;1.40;;
18100;SDS011;9177;49.156;8.142;2022-08-02T09:52:25;1.10;;;1.10;;
18100;SDS011;9177;49.156;8.142;2022-08-02T09:55:01;1.33;;;1.23;;
18100;SDS011;9177;49.156;8.142;2022-08-02T09:57:29;1.50;;;1.40;;
18100;SDS011;9177;49.156;8.142;2022-08-02T10:00:05;1.38;;;1.27;;
18100;SDS011;9177;49.156;8.142;2022-08-02T10:02:36;2.85;;;1.40;;
18100;SDS011;9177;49.156;8.142;2022-08-02T10:05:03;1.30;;;1.20;;
18100;SDS011;9177;49.156;8.142;2022-08-02T10:07:30;1.42;;;1.33;;
18100;SDS011;9177;49.156;8.142;2022-08-02T10:09:57;1.00;;;1.00;;
18100;SDS011;9177;49.156;8.142;2022-08-02T10:12:25;2.38;;;1.15;;
18100;SDS011;9177;49.156;8.142;2022-08-02T10:14:52;1.17;;;1.10;;
18100;SDS011;9177;49.156;8.142;2022-08-02T10:17:19;1.30;;;1.20;;
18100;SDS011;9177;49.156;8.142;2022-08-02T10:19:48;1.38;;;1.27;;
18100;SDS011;9177;49.156;8.142;2022-08-02T10:22:15;1.38;;;1.20;;
18100;SDS011;9177;49.156;8.142;2022-08-02T10:24:43;1.27;;;1.17;;
18100;SDS011;9177;49.156;8.142;2022-08-02T10:27:12;1.40;;;1.25;;
18100;SDS011;9177;49.156;8.142;2022-08-02T10:29:41;1.23;;;1.20;;
18100;SDS011;9177;49.156;8.142;2022-08-02T10:32:12;1.30;;;1.20;;
18100;SDS011;9177;49.156;8.142;2022-08-02T10:34:44;1.33;;;1.27;;
18100;SDS011;9177;49.156;8.142;2022-08-02T10:37:17;1.52;;;1.10;;
18100;SDS011;9177;49.156;8.142;2022-08-02T10:39:45;1.40;;;1.30;;
18100;SDS011;9177;49.156;8.142;2022-08-02T10:42:12;1.48;;;1.38;;
18100;SDS011;9177;49.156;8.142;2022-08-02T10:45:08;1.20;;;1.10;;
18100;SDS011;9177;49.156;8.142;2022-08-02T10:47:39;1.50;;;1.20;;
18100;SDS011;9177;49.156;8.142;2022-08-02T10:50:29;1.10;;;1.10;;
18100;SDS011;9177;49.156;8.142;2022-08-02T10:53:24;1.88;;;1.23;;
18100;SDS011;9177;49.156;8.142;2022-08-02T10:55:52;1.23;;;1.13;;
18100;SDS011;9177;49.156;8.142;2022-08-02T10:58:21;1.75;;;1.30;;
18100;SDS011;9177;49.156;8.142;2022-08-02T11:00:52;1.52;;;1.42;;
18100;SDS011;9177;49.156;8.142;2022-08-02T11:03:33;1.40;;;1.30;;
18100;SDS011;9177;49.156;8.142;2022-08-02T11:06:03;1.50;;;1.40;;
18100;SDS011;9177;49.156;8.142;2022-08-02T11:08:31;1.55;;;1.20;;
18100;SDS011;9177;49.156;8.142;2022-08-02T11:10:58;1.48;;;1.38;;
18100;SDS011;9177;49.156;8.142;2022-08-02T11:13:27;1.33;;;1.23;;
18100;SDS011;9177;49.156;8.142;2022-08-02T11:15:56;1.55;;;1.45;;
18100;SDS011;9177;49.156;8.142;2022-08-02T11:21:30;1.15;;;1.10;;
18100;SDS011;9177;49.156;8.142;2022-08-02T11:26:52;1.30;;;1.20;;
18100;SDS011;9177;49.156;8.142;2022-08-02T11:29:19;1.42;;;1.33;;
18100;SDS011;9177;49.156;8.142;2022-08-02T11:31:47;1.85;;;1.20;;
18100;SDS011;9177;49.156;8.142;2022-08-02T11:34:15;1.33;;;1.23;;
18100;SDS011;9177;49.156;8.142;2022-08-02T11:36:48;1.27;;;1.27;;
18100;SDS011;9177;49.156;8.142;2022-08-02T11:39:17;1.40;;;1.30;;
18100;SDS011;9177;49.156;8.142;2022-08-02T11:41:49;1.40;;;1.30;;
18100;SDS011;9177;49.156;8.142;2022-08-02T11:44:21;1.42;;;1.33;;
18100;SDS011;9177;49.156;8.142;2022-08-02T11:46:53;1.65;;;1.55;;
18100;SDS011;9177;49.156;8.142;2022-08-02T11:49:21;1.45;;;1.27;;
18100;SDS011;9177;49.156;8.142;2022-08-02T11:51:53;1.65;;;1.55;;
18100;SDS011;9177;49.156;8.142;2022-08-02T11:54:22;1.10;;;1.10;;
18100;SDS011;9177;49.156;8.142;2022-08-02T11:56:53;1.40;;;1.30;;
18100;SDS011;9177;49.156;8.142;2022-08-02T11:59:21;1.30;;;1.20;;
18100;SDS011;9177;49.156;8.142;2022-08-02T12:01:48;1.50;;;1.40;;
18100;SDS011;9177;49.156;8.142;2022-08-02T12:04:16;0.90;;;0.90;;
18100;SDS011;9177;49.156;8.142;2022-08-02T12:06:53;1.35;;;1.25;;
18100;SDS011;9177;49.156;8.142;2022-08-02T12:09:22;1.08;;;1.00;;
18100;SDS011;9177;49.156;8.142;2022-08-02T12:11:50;1.30;;;1.20;;
18100;SDS011;9177;49.156;8.142;2022-08-02T12:14:17;1.45;;;1.35;;
18100;SDS011;9177;49.156;8.142;2022-08-02T12:16:45;1.38;;;1.27;;
18100;SDS011;9177;49.156;8.142;2022-08-02T12:19:31;1.45;;;1.35;;
18100;SDS011;9177;49.156;8.142;2022-08-02T12:22:07;1.48;;;1.38;;
18100;SDS011;9177;49.156;8.142;2022-08-02T12:24:36;2.30;;;1.13;;
18100;SDS011;9177;49.156;8.142;2022-08-02T12:27:04;1.08;;;1.08;;
18100;SDS011;9177;49.156;8.142;2022-08-02T12:29:32;1.40;;;1.30;;
18100;SDS011;9177;49.156;8.142;2022-08-02T12:32:01;1.08;;;1.00;;
18100;SDS011;9177;49.156;8.142;2022-08-02T12:34:29;1.40;;;1.30;;
18100;SDS011;9177;49.156;8.142;2022-08-02T12:37:02;1.35;;;1.25;;
18100;SDS011;9177;49.156;8.142;2022-08-02T12:39:40;1.30;;;1.20;;
18100;SDS011;9177;49.156;8.142;2022-08-02T12:42:08;2.00;;;1.30;;
18100;SDS011;9177;49.156;8.142;2022-08-02T12:44:49;1.45;;;1.35;;
18100;SDS011;9177;49.156;8.142;2022-08-02T12:47:17;1.30;;;1.20;;
18100;SDS011;9177;49.156;8.142;2022-08-02T12:49:45;1.02;;;1.02;;
18100;SDS011;9177;49.156;8.142;2022-08-02T12:52:18;1.30;;;1.20;;
18100;SDS011;9177;49.156;8.142;2022-08-02T12:54:48;1.88;;;1.10;;
18100;SDS011;9177;49.156;8.142;2022-08-02T12:57:16;1.20;;;1.20;;
18100;SDS011;9177;49.156;8.142;2022-08-02T12:59:48;0.98;;;0.98;;
18100;SDS011;9177;49.156;8.142;2022-08-02T13:02:16;1.20;;;1.20;;
18100;SDS011;9177;49.156;8.142;2022-08-02T13:04:43;1.20;;;1.10;;
18100;SDS011;9177;49.156;8.142;2022-08-02T13:07:10;1.30;;;1.20;;
18100;SDS011;9177;49.156;8.142;2022-08-02T13:09:38;1.48;;;1.38;;
18100;SDS011;9177;49.156;8.142;2022-08-02T13:12:10;1.10;;;1.00;;
18100;SDS011;9177;49.156;8.142;2022-08-02T13:14:37;1.40;;;1.30;;
18100;SDS011;9177;49.156;8.142;2022-08-02T13:17:04;1.20;;;1.17;;
18100;SDS011;9177;49.156;8.142;2022-08-02T13:19:31;1.15;;;1.05;;
18100;SDS011;9177;49.156;8.142;2022-08-02T13:21:58;1.00;;;1.00;;
18100;SDS011;9177;49.156;8.142;2022-08-02T13:24:25;1.05;;;1.05;;
18100;SDS011;9177;49.156;8.142;2022-08-02T13:26:51;1.30;;;1.20;;
18100;SDS011;9177;49.156;8.142;2022-08-02T13:29:20;1.38;;;1.27;;
18100;SDS011;9177;49.156;8.142;2022-08-02T13:31:47;1.30;;;1.20;;
18100;SDS011;9177;49.156;8.142;2022-08-02T13:34:14;1.42;;;1.30;;
18100;SDS011;9177;49.156;8.142;2022-08-02T13:36:41;1.20;;;1.10;;
18100;SDS011;9177;49.156;8.142;2022-08-02T13:39:08;1.35;;;1.25;;
18100;SDS011;9177;49.156;8.142;2022-08-02T13:41:36;1.25;;;1.23;;
18100;SDS011;9177;49.156;8.142;2022-08-02T13:44:03;1.48;;;1.38;;
18100;SDS011;9177;49.156;8.142;2022-08-02T13:46:31;1.42;;;1.33;;
18100;SDS011;9177;49.156;8.142;2022-08-02T13:49:00;1.05;;;1.05;;
18100;SDS011;9177;49.156;8.142;2022-08-02T13:51:27;1.40;;;1.30;;
18100;SDS011;9177;49.156;8.142;2022-08-02T13:53:54;1.30;;;1.20;;
18100;SDS011;9177;49.156;8.142;2022-08-02T13:56:21;1.33;;;1.23;;
18100;SDS011;9177;49.156;8.142;2022-08-02T13:58:48;1.30;;;1.20;;
18100;SDS011;9177;49.156;8.142;2022-08-02T14:01:15;2.28;;;1.40;;
18100;SDS011;9177;49.156;8.142;2022-08-02T14:03:43;1.30;;;1.23;;
18100;SDS011;9177;49.156;8.142;2022-08-02T14:06:11;1.20;;;1.10;;
18100;SDS011;9177;49.156;8.142;2022-08-02T14:08:38;1.58;;;1.48;;
18100;SDS011;9177;49.156;8.142;2022-08-02T14:11:05;1.08;;;1.08;;
18100;SDS011;9177;49.156;8.142;2022-08-02T14:13:32;1.48;;;1.38;;
18100;SDS011;9177;49.156;8.142;2022-08-02T14:15:59;1.80;;;1.20;;
18100;SDS011;9177;49.156;8.142;2022-08-02T14:18:26;1.30;;;1.20;;
18100;SDS011;9177;49.156;8.142;2022-08-02T14:20:55;1.48;;;1.38;;
18100;SDS011;9177;49.156;8.142;2022-08-02T14:23:22;1.30;;;1.20;;
18100;SDS011;9177;49.156;8.142;2022-08-02T14:25:49;1.25;;;1.17;;
18100;SDS011;9177;49.156;8.142;2022-08-02T14:28:15;1.55;;;1.20;;
18100;SDS011;9177;49.156;8.142;2022-08-02T14:30:42;1.38;;;1.27;;
18100;SDS011;9177;49.156;8.142;2022-08-02T14:33:09;1.35;;;1.20;;
18100;SDS011;9177;49.156;8.142;2022-08-02T14:35:36;1.33;;;1.10;;
18100;SDS011;9177;49.156;8.142;2022-08-02T14:38:04;1.83;;;1.17;;
18100;SDS011;9177;49.156;8.142;2022-08-02T14:40:32;1.30;;;1.20;;
18100;SDS011;9177;49.156;8.142;2022-08-02T14:42:59;1.13;;;1.10;;
18100;SDS011;9177;49.156;8.142;2022-08-02T14:45:26;1.08;;;1.00;;
18100;SDS011;9177;49.156;8.142;2022-08-02T14:47:54;1.35;;;1.25;;
18100;SDS011;9177;49.156;8.142;2022-08-02T14:50:22;1.77;;;1.20;;
18100;SDS011;9177;49.156;8.142;2022-08-02T14:52:49;1.30;;;1.20;;
18100;SDS011;9177;49.156;8.142;2022-08-02T14:55:18;1.20;;;1.10;;
18100;SDS011;9177;49.156;8.142;2022-08-02T14:57:45;1.45;;;1.10;;
18100;SDS011;9177;49.156;8.142;2022-08-02T15:00:14;2.42;;;1.20;;
18100;SDS011;9177;49.156;8.142;2022-08-02T15:02:41;1.38;;;1.27;;
18100;SDS011;9177;49.156;8.142;2022-08-02T15:05:08;1.42;;;1.23;;
18100;SDS011;9177;49.156;8.142;2022-08-02T15:07:35;4.70;;;1.40;;
18100;SDS011;9177;49.156;8.142;2022-08-02T15:10:02;1.13;;;1.08;;
18100;SDS011;9177;49.156;8.142;2022-08-02T15:12:31;1.58;;;1.38;;
18100;SDS011;9177;49.156;8.142;2022-08-02T15:14:58;1.73;;;1.30;;
18100;SDS011;9177;49.156;8.142;2022-08-02T15:17:25;1.20;;;1.20;;